sensor_id;sensor_type;location;lat;lon;timestamp;temperature;humidity
9949;DHT22;5013;51.840;8.276;2022-11-04T00:01:16;12.00;99.90
9949;DHT22;5013;51.840;8.276;2022-11-04T00:03:41;11.90;99.90
9949;DHT22;5013;51.840;8.276;2022-11-04T00:06:07;11.90;99.90
9949;DHT22;5013;51.840;8.276;2022-11-04T00:08:33;11.90;99.90
9949;DHT22;5013;51.840;8.276;2022-11-04T00:10:59;12.00;99.90
9949;DHT22;5013;51.840;8.276;2022-11-04T00:13:44;11.90;99.90
9949;DHT22;5013;51.840;8.276;2022-11-04T00:16:11;12.00;99.90
9949;DHT22;5013;51.840;8.276;2022-11-04T00:18:55;11.90;99.90
9949;DHT22;5013;51.840;8.276;2022-11-04T00:21:21;12.00;99.90
9949;DHT22;5013;51.840;8.276;2022-11-04T00:24:05;12.00;99.90
9949;DHT22;5013;51.840;8.276;2022-11-04T00:26:51;12.00;99.90
9949;DHT22;5013;51.840;8.276;2022-11-04T00:29:35;11.90;99.90
9949;DHT22;5013;51.840;8.276;2022-11-04T00:32:00;11.90;99.90
9949;DHT22;5013;51.840;8.276;2022-11-04T00:34:45;12.00;99.90
9949;DHT22;5013;51.840;8.276;2022-11-04T00:37:10;11.90;99.90
9949;DHT22;5013;51.840;8.276;2022-11-04T00:39:36;11.90;99.90
9949;DHT22;5013;51.840;8.276;2022-11-04T00:42:01;11.90;99.90
9949;DHT22;5013;51.840;8.276;2022-11-04T00:44:27;11.90;99.90
9949;DHT22;5013;51.840;8.276;2022-11-04T00:46:52;11.90;99.90
9949;DHT22;5013;51.840;8.276;2022-11-04T00:49:18;11.90;99.90
9949;DHT22;5013;51.840;8.276;2022-11-04T00:51:44;11.90;99.90
9949;DHT22;5013;51.840;8.276;2022-11-04T00:54:09;11.90;99.90
9949;DHT22;5013;51.840;8.276;2022-11-04T00:56:38;11.80;99.90
9949;DHT22;5013;51.840;8.276;2022-11-04T00:59:05;11.80;99.90
9949;DHT22;5013;51.840;8.276;2022-11-04T01:01:31;11.80;99.90
9949;DHT22;5013;51.840;8.276;2022-11-04T01:03:56;11.70;99.90
9949;DHT22;5013;51.840;8.276;2022-11-04T01:06:23;11.70;99.90
9949;DHT22;5013;51.840;8.276;2022-11-04T01:08:58;11.60;99.90
9949;DHT22;5013;51.840;8.276;2022-11-04T01:11:24;11.60;99.90
9949;DHT22;5013;51.840;8.276;2022-11-04T01:13:50;11.60;99.90
9949;DHT22;5013;51.840;8.276;2022-11-04T01:16:16;11.50;99.90
9949;DHT22;5013;51.840;8.276;2022-11-04T01:18:42;11.40;76.80
9949;DHT22;5013;51.840;8.276;2022-11-04T01:21:11;11.40;99.90
9949;DHT22;5013;51.840;8.276;2022-11-04T01:23:37;11.30;99.90
9949;DHT22;5013;51.840;8.276;2022-11-04T01:26:05;11.30;99.90
9949;DHT22;5013;51.840;8.276;2022-11-04T01:28:31;11.30;99.90
9949;DHT22;5013;51.840;8.276;2022-11-04T01:30:56;11.20;99.90
9949;DHT22;5013;51.840;8.276;2022-11-04T01:33:22;11.20;99.90
9949;DHT22;5013;51.840;8.276;2022-11-04T01:35:49;11.20;99.90
9949;DHT22;5013;51.840;8.276;2022-11-04T01:38:15;11.20;99.90
9949;DHT22;5013;51.840;8.276;2022-11-04T01:40:41;11.10;99.90
9949;DHT22;5013;51.840;8.276;2022-11-04T01:43:18;11.10;99.90
9949;DHT22;5013;51.840;8.276;2022-11-04T01:45:49;11.10;99.90
9949;DHT22;5013;51.840;8.276;2022-11-04T01:48:30;11.00;99.90
9949;DHT22;5013;51.840;8.276;2022-11-04T01:50:56;11.00;99.90
9949;DHT22;5013;51.840;8.276;2022-11-04T01:53:30;11.00;99.90
9949;DHT22;5013;51.840;8.276;2022-11-04T01:55:59;11.10;99.90
9949;DHT22;5013;51.840;8.276;2022-11-04T01:58:29;11.00;99.90
9949;DHT22;5013;51.840;8.276;2022-11-04T02:03:58;11.00;99.90
9949;DHT22;5013;51.840;8.276;2022-11-04T02:06:44;10.90;99.90
9949;DHT22;5013;51.840;8.276;2022-11-04T02:09:11;10.90;99.90
9949;DHT22;5013;51.840;8.276;2022-11-04T02:11:37;10.90;99.90
9949;DHT22;5013;51.840;8.276;2022-11-04T02:14:21;10.90;99.90
9949;DHT22;5013;51.840;8.276;2022-11-04T02:16:47;10.90;99.90
9949;DHT22;5013;51.840;8.276;2022-11-04T02:22:23;10.90;99.90
9949;DHT22;5013;51.840;8.276;2022-11-04T02:31:12;10.80;99.90
9949;DHT22;5013;51.840;8.276;2022-11-04T02:38:56;10.80;99.90
9949;DHT22;5013;51.840;8.276;2022-11-04T02:41:50;10.70;99.90
9949;DHT22;5013;51.840;8.276;2022-11-04T02:44:34;10.70;99.90
9949;DHT22;5013;51.840;8.276;2022-11-04T02:49:46;10.60;99.90
9949;DHT22;5013;51.840;8.276;2022-11-04T02:52:29;10.60;99.90
9949;DHT22;5013;51.840;8.276;2022-11-04T02:55:04;10.70;99.90
9949;DHT22;5013;51.840;8.276;2022-11-04T02:57:34;10.70;99.90
9949;DHT22;5013;51.840;8.276;2022-11-04T03:00:03;10.70;99.90
9949;DHT22;5013;51.840;8.276;2022-11-04T03:02:43;10.70;99.90
9949;DHT22;5013;51.840;8.276;2022-11-04T03:05:12;10.70;99.90
9949;DHT22;5013;51.840;8.276;2022-11-04T03:07:41;10.70;99.90
9949;DHT22;5013;51.840;8.276;2022-11-04T03:10:13;10.70;99.90
9949;DHT22;5013;51.840;8.276;2022-11-04T03:13:07;10.70;99.90
9949;DHT22;5013;51.840;8.276;2022-11-04T03:15:33;10.70;99.90
9949;DHT22;5013;51.840;8.276;2022-11-04T03:18:02;10.70;99.90
9949;DHT22;5013;51.840;8.276;2022-11-04T03:20:29;10.70;99.90
9949;DHT22;5013;51.840;8.276;2022-11-04T03:22:57;10.70;99.90
9949;DHT22;5013;51.840;8.276;2022-11-04T03:25:55;10.70;99.90
9949;DHT22;5013;51.840;8.276;2022-11-04T03:28:42;10.60;99.90
9949;DHT22;5013;51.840;8.276;2022-11-04T03:31:15;10.60;99.90
9949;DHT22;5013;51.840;8.276;2022-11-04T03:33:49;10.50;99.90
9949;DHT22;5013;51.840;8.276;2022-11-04T03:36:16;10.50;99.90
9949;DHT22;5013;51.840;8.276;2022-11-04T03:38:42;10.50;99.90
9949;DHT22;5013;51.840;8.276;2022-11-04T03:41:14;10.40;99.90
9949;DHT22;5013;51.840;8.276;2022-11-04T03:43:42;10.40;99.90
9949;DHT22;5013;51.840;8.276;2022-11-04T03:46:08;10.30;99.90
9949;DHT22;5013;51.840;8.276;2022-11-04T03:48:34;10.30;99.90
9949;DHT22;5013;51.840;8.276;2022-11-04T03:51:00;10.20;99.90
9949;DHT22;5013;51.840;8.276;2022-11-04T03:53:27;10.30;99.90
9949;DHT22;5013;51.840;8.276;2022-11-04T03:56:23;10.30;99.90
9949;DHT22;5013;51.840;8.276;2022-11-04T04:04:12;10.30;99.90
9949;DHT22;5013;51.840;8.276;2022-11-04T04:06:38;10.30;99.90
9949;DHT22;5013;51.840;8.276;2022-11-04T04:09:19;10.30;99.90
9949;DHT22;5013;51.840;8.276;2022-11-04T04:11:57;10.40;99.90
9949;DHT22;5013;51.840;8.276;2022-11-04T04:14:31;10.40;57.90
9949;DHT22;5013;51.840;8.276;2022-11-04T04:17:19;10.40;18.20
9949;DHT22;5013;51.840;8.276;2022-11-04T04:19:58;10.40;4.80
9949;DHT22;5013;51.840;8.276;2022-11-04T04:22:31;10.40;1.00
9949;DHT22;5013;51.840;8.276;2022-11-04T04:25:03;10.40;1.00
9949;DHT22;5013;51.840;8.276;2022-11-04T04:27:50;10.60;1.00
9949;DHT22;5013;51.840;8.276;2022-11-04T04:30:17;10.40;1.00
9949;DHT22;5013;51.840;8.276;2022-11-04T04:32:53;10.30;1.00
9949;DHT22;5013;51.840;8.276;2022-11-04T04:35:25;10.30;1.00
9949;DHT22;5013;51.840;8.276;2022-11-04T04:41:05;10.20;1.00
9949;DHT22;5013;51.840;8.276;2022-11-04T04:43:52;10.20;1.00
9949;DHT22;5013;51.840;8.276;2022-11-04T04:46:37;10.20;6.10
9949;DHT22;5013;51.840;8.276;2022-11-04T04:49:05;10.20;21.00
9949;DHT22;5013;51.840;8.276;2022-11-04T04:51:31;10.20;18.70
9949;DHT22;5013;51.840;8.276;2022-11-04T04:53:57;10.20;27.80
9949;DHT22;5013;51.840;8.276;2022-11-04T04:56:23;10.10;49.60
9949;DHT22;5013;51.840;8.276;2022-11-04T04:58:48;10.10;73.80
9949;DHT22;5013;51.840;8.276;2022-11-04T05:01:14;10.10;95.50
9949;DHT22;5013;51.840;8.276;2022-11-04T05:03:39;10.10;99.90
9949;DHT22;5013;51.840;8.276;2022-11-04T05:06:05;10.00;99.90
9949;DHT22;5013;51.840;8.276;2022-11-04T05:08:31;10.10;99.90
9949;DHT22;5013;51.840;8.276;2022-11-04T05:10:58;10.10;99.90
9949;DHT22;5013;51.840;8.276;2022-11-04T05:13:23;10.10;99.90
9949;DHT22;5013;51.840;8.276;2022-11-04T05:15:55;10.00;99.90
9949;DHT22;5013;51.840;8.276;2022-11-04T05:18:20;10.00;99.90
9949;DHT22;5013;51.840;8.276;2022-11-04T05:20:46;10.10;99.90
9949;DHT22;5013;51.840;8.276;2022-11-04T05:23:11;10.00;99.90
9949;DHT22;5013;51.840;8.276;2022-11-04T05:25:39;10.10;99.90
9949;DHT22;5013;51.840;8.276;2022-11-04T05:28:05;10.10;99.90
9949;DHT22;5013;51.840;8.276;2022-11-04T05:30:31;10.10;99.90
9949;DHT22;5013;51.840;8.276;2022-11-04T05:32:57;10.20;99.90
9949;DHT22;5013;51.840;8.276;2022-11-04T05:35:22;10.20;99.90
9949;DHT22;5013;51.840;8.276;2022-11-04T05:37:48;10.30;99.90
9949;DHT22;5013;51.840;8.276;2022-11-04T05:40:13;10.30;99.90
9949;DHT22;5013;51.840;8.276;2022-11-04T05:42:39;10.30;99.90
9949;DHT22;5013;51.840;8.276;2022-11-04T05:45:05;10.30;99.90
9949;DHT22;5013;51.840;8.276;2022-11-04T05:47:31;10.30;99.90
9949;DHT22;5013;51.840;8.276;2022-11-04T05:49:56;10.30;99.90
9949;DHT22;5013;51.840;8.276;2022-11-04T05:52:22;10.30;99.90
9949;DHT22;5013;51.840;8.276;2022-11-04T05:54:48;10.40;99.90
9949;DHT22;5013;51.840;8.276;2022-11-04T05:57:13;10.30;99.90
9949;DHT22;5013;51.840;8.276;2022-11-04T05:59:39;10.30;99.90
9949;DHT22;5013;51.840;8.276;2022-11-04T06:02:04;10.30;99.90
9949;DHT22;5013;51.840;8.276;2022-11-04T06:04:30;10.20;99.90
9949;DHT22;5013;51.840;8.276;2022-11-04T06:06:55;10.30;99.90
9949;DHT22;5013;51.840;8.276;2022-11-04T06:09:21;10.20;99.90
9949;DHT22;5013;51.840;8.276;2022-11-04T06:12:13;10.20;99.90
9949;DHT22;5013;51.840;8.276;2022-11-04T06:14:40;10.30;99.90
9949;DHT22;5013;51.840;8.276;2022-11-04T06:17:06;10.30;99.90
9949;DHT22;5013;51.840;8.276;2022-11-04T06:19:32;10.30;99.90
9949;DHT22;5013;51.840;8.276;2022-11-04T06:21:58;10.30;99.90
9949;DHT22;5013;51.840;8.276;2022-11-04T06:24:24;10.30;99.90
9949;DHT22;5013;51.840;8.276;2022-11-04T06:26:50;10.30;99.90
9949;DHT22;5013;51.840;8.276;2022-11-04T06:29:15;10.20;99.90
9949;DHT22;5013;51.840;8.276;2022-11-04T06:31:41;10.30;99.90
9949;DHT22;5013;51.840;8.276;2022-11-04T06:34:07;10.20;99.90
9949;DHT22;5013;51.840;8.276;2022-11-04T06:36:32;10.10;75.40
9949;DHT22;5013;51.840;8.276;2022-11-04T06:38:58;10.20;69.30
9949;DHT22;5013;51.840;8.276;2022-11-04T06:41:23;10.20;99.90
9949;DHT22;5013;51.840;8.276;2022-11-04T06:43:49;10.20;94.50
9949;DHT22;5013;51.840;8.276;2022-11-04T06:46:26;10.10;99.90
9949;DHT22;5013;51.840;8.276;2022-11-04T06:48:53;10.10;99.90
9949;DHT22;5013;51.840;8.276;2022-11-04T06:51:19;10.10;99.90
9949;DHT22;5013;51.840;8.276;2022-11-04T06:53:45;10.20;99.90
9949;DHT22;5013;51.840;8.276;2022-11-04T06:56:10;10.20;99.90
9949;DHT22;5013;51.840;8.276;2022-11-04T06:58:36;10.30;99.90
9949;DHT22;5013;51.840;8.276;2022-11-04T07:01:02;10.20;99.90
9949;DHT22;5013;51.840;8.276;2022-11-04T07:03:27;10.30;99.90
9949;DHT22;5013;51.840;8.276;2022-11-04T07:05:54;10.30;99.90
9949;DHT22;5013;51.840;8.276;2022-11-04T07:08:19;10.30;99.90
9949;DHT22;5013;51.840;8.276;2022-11-04T07:10:45;10.30;99.90
9949;DHT22;5013;51.840;8.276;2022-11-04T07:13:11;10.30;99.90
9949;DHT22;5013;51.840;8.276;2022-11-04T07:15:37;10.30;99.90
9949;DHT22;5013;51.840;8.276;2022-11-04T07:18:04;10.40;26.70
9949;DHT22;5013;51.840;8.276;2022-11-04T07:20:32;10.40;79.60
9949;DHT22;5013;51.840;8.276;2022-11-04T07:22:58;10.30;31.60
9949;DHT22;5013;51.840;8.276;2022-11-04T07:25:23;10.40;80.80
9949;DHT22;5013;51.840;8.276;2022-11-04T07:27:49;10.40;32.10
9949;DHT22;5013;51.840;8.276;2022-11-04T07:30:15;10.40;54.00
9949;DHT22;5013;51.840;8.276;2022-11-04T07:32:40;10.50;1.00
9949;DHT22;5013;51.840;8.276;2022-11-04T07:35:06;10.50;1.00
9949;DHT22;5013;51.840;8.276;2022-11-04T07:37:32;10.50;1.00
9949;DHT22;5013;51.840;8.276;2022-11-04T07:39:57;10.50;1.00
9949;DHT22;5013;51.840;8.276;2022-11-04T07:42:23;10.60;1.00
9949;DHT22;5013;51.840;8.276;2022-11-04T07:44:49;10.60;1.00
9949;DHT22;5013;51.840;8.276;2022-11-04T07:47:14;10.60;1.00
9949;DHT22;5013;51.840;8.276;2022-11-04T07:49:40;10.70;1.00
9949;DHT22;5013;51.840;8.276;2022-11-04T07:52:05;10.80;1.00
9949;DHT22;5013;51.840;8.276;2022-11-04T07:54:31;10.80;1.00
9949;DHT22;5013;51.840;8.276;2022-11-04T07:56:57;10.90;1.00
9949;DHT22;5013;51.840;8.276;2022-11-04T08:02:44;11.00;99.90
9949;DHT22;5013;51.840;8.276;2022-11-04T08:05:12;10.90;99.90
9949;DHT22;5013;51.840;8.276;2022-11-04T08:07:38;10.90;1.00
9949;DHT22;5013;51.840;8.276;2022-11-04T08:10:04;11.00;99.90
9949;DHT22;5013;51.840;8.276;2022-11-04T08:12:30;11.00;99.90
9949;DHT22;5013;51.840;8.276;2022-11-04T08:18:18;11.10;99.90
9949;DHT22;5013;51.840;8.276;2022-11-04T08:20:48;11.10;99.90
9949;DHT22;5013;51.840;8.276;2022-11-04T08:23:15;11.20;99.90
9949;DHT22;5013;51.840;8.276;2022-11-04T08:25:40;11.30;21.90
9949;DHT22;5013;51.840;8.276;2022-11-04T08:28:06;11.40;99.90
9949;DHT22;5013;51.840;8.276;2022-11-04T08:30:32;11.40;99.90
9949;DHT22;5013;51.840;8.276;2022-11-04T08:32:58;11.40;99.90
9949;DHT22;5013;51.840;8.276;2022-11-04T08:35:24;11.50;1.00
9949;DHT22;5013;51.840;8.276;2022-11-04T08:37:50;11.60;1.00
9949;DHT22;5013;51.840;8.276;2022-11-04T08:40:15;11.80;1.00
9949;DHT22;5013;51.840;8.276;2022-11-04T08:42:41;11.80;99.90
9949;DHT22;5013;51.840;8.276;2022-11-04T08:45:07;11.80;1.00
9949;DHT22;5013;51.840;8.276;2022-11-04T08:47:33;11.90;1.00
9949;DHT22;5013;51.840;8.276;2022-11-04T08:49:58;12.00;1.00
9949;DHT22;5013;51.840;8.276;2022-11-04T08:52:24;12.20;99.90
9949;DHT22;5013;51.840;8.276;2022-11-04T08:54:53;12.20;1.00
9949;DHT22;5013;51.840;8.276;2022-11-04T08:57:19;12.30;99.90
9949;DHT22;5013;51.840;8.276;2022-11-04T08:59:44;12.30;99.90
9949;DHT22;5013;51.840;8.276;2022-11-04T09:02:13;12.40;99.90
9949;DHT22;5013;51.840;8.276;2022-11-04T09:04:40;12.30;1.00
9949;DHT22;5013;51.840;8.276;2022-11-04T09:07:06;12.10;1.00
9949;DHT22;5013;51.840;8.276;2022-11-04T09:09:32;12.20;97.20
9949;DHT22;5013;51.840;8.276;2022-11-04T09:11:58;12.30;1.00
9949;DHT22;5013;51.840;8.276;2022-11-04T09:14:23;12.50;1.00
9949;DHT22;5013;51.840;8.276;2022-11-04T09:16:49;12.60;1.00
9949;DHT22;5013;51.840;8.276;2022-11-04T09:19:15;12.50;1.00
9949;DHT22;5013;51.840;8.276;2022-11-04T09:21:40;12.50;1.00
9949;DHT22;5013;51.840;8.276;2022-11-04T09:24:06;12.50;99.90
9949;DHT22;5013;51.840;8.276;2022-11-04T09:26:33;12.50;99.90
9949;DHT22;5013;51.840;8.276;2022-11-04T09:28:59;12.60;1.00
9949;DHT22;5013;51.840;8.276;2022-11-04T09:31:26;12.70;1.00
9949;DHT22;5013;51.840;8.276;2022-11-04T09:33:54;12.70;99.90
9949;DHT22;5013;51.840;8.276;2022-11-04T09:36:20;12.70;99.90
9949;DHT22;5013;51.840;8.276;2022-11-04T09:38:45;12.70;16.40
9949;DHT22;5013;51.840;8.276;2022-11-04T09:44:01;12.90;99.90
9949;DHT22;5013;51.840;8.276;2022-11-04T09:46:30;12.90;99.90
9949;DHT22;5013;51.840;8.276;2022-11-04T09:48:57;12.90;99.90
9949;DHT22;5013;51.840;8.276;2022-11-04T09:51:25;12.90;99.90
9949;DHT22;5013;51.840;8.276;2022-11-04T09:53:55;12.90;99.90
9949;DHT22;5013;51.840;8.276;2022-11-04T09:56:44;12.90;99.90
9949;DHT22;5013;51.840;8.276;2022-11-04T09:59:10;12.90;99.90
9949;DHT22;5013;51.840;8.276;2022-11-04T10:01:41;12.90;38.90
9949;DHT22;5013;51.840;8.276;2022-11-04T10:04:23;12.90;1.00
9949;DHT22;5013;51.840;8.276;2022-11-04T10:10:16;12.90;1.00
9949;DHT22;5013;51.840;8.276;2022-11-04T10:15:57;12.90;2.70
9949;DHT22;5013;51.840;8.276;2022-11-04T10:23:48;13.50;1.00
9949;DHT22;5013;51.840;8.276;2022-11-04T10:26:41;13.60;1.00
9949;DHT22;5013;51.840;8.276;2022-11-04T10:31:56;14.20;5.50
9949;DHT22;5013;51.840;8.276;2022-11-04T10:36:56;14.50;1.00
9949;DHT22;5013;51.840;8.276;2022-11-04T10:39:30;14.20;1.00
9949;DHT22;5013;51.840;8.276;2022-11-04T10:41:57;14.10;1.00
9949;DHT22;5013;51.840;8.276;2022-11-04T10:44:28;13.70;99.90
9949;DHT22;5013;51.840;8.276;2022-11-04T10:52:16;13.00;1.00
9949;DHT22;5013;51.840;8.276;2022-11-04T10:54:44;12.80;1.00
9949;DHT22;5013;51.840;8.276;2022-11-04T10:57:19;12.80;13.40
9949;DHT22;5013;51.840;8.276;2022-11-04T10:59:56;12.90;1.00
9949;DHT22;5013;51.840;8.276;2022-11-04T11:02:44;12.90;1.00
9949;DHT22;5013;51.840;8.276;2022-11-04T11:07:46;12.80;1.00
9949;DHT22;5013;51.840;8.276;2022-11-04T11:13:02;13.00;1.00
9949;DHT22;5013;51.840;8.276;2022-11-04T11:18:16;12.90;1.00
9949;DHT22;5013;51.840;8.276;2022-11-04T11:20:48;13.10;1.00
9949;DHT22;5013;51.840;8.276;2022-11-04T11:23:45;13.10;1.00
9949;DHT22;5013;51.840;8.276;2022-11-04T11:26:19;13.00;1.00
9949;DHT22;5013;51.840;8.276;2022-11-04T11:28:51;13.00;1.00
9949;DHT22;5013;51.840;8.276;2022-11-04T11:31:21;12.90;1.00
9949;DHT22;5013;51.840;8.276;2022-11-04T11:34:03;13.00;1.00
9949;DHT22;5013;51.840;8.276;2022-11-04T11:36:30;13.10;99.90
9949;DHT22;5013;51.840;8.276;2022-11-04T11:49:44;13.40;1.00
9949;DHT22;5013;51.840;8.276;2022-11-04T11:55:04;13.70;30.50
9949;DHT22;5013;51.840;8.276;2022-11-04T11:57:39;13.80;96.10
9949;DHT22;5013;51.840;8.276;2022-11-04T12:00:13;13.80;99.90
9949;DHT22;5013;51.840;8.276;2022-11-04T12:11:14;13.10;1.00
9949;DHT22;5013;51.840;8.276;2022-11-04T12:13:55;12.80;7.20
9949;DHT22;5013;51.840;8.276;2022-11-04T12:19:45;12.60;99.90
9949;DHT22;5013;51.840;8.276;2022-11-04T12:30:23;12.30;1.00
9949;DHT22;5013;51.840;8.276;2022-11-04T12:33:31;12.30;1.00
9949;DHT22;5013;51.840;8.276;2022-11-04T12:44:39;13.10;1.00
9949;DHT22;5013;51.840;8.276;2022-11-04T12:47:31;13.00;1.00
9949;DHT22;5013;51.840;8.276;2022-11-04T12:50:23;13.00;93.90
9949;DHT22;5013;51.840;8.276;2022-11-04T13:01:37;12.90;1.00
9949;DHT22;5013;51.840;8.276;2022-11-04T13:04:17;12.90;1.00
9949;DHT22;5013;51.840;8.276;2022-11-04T13:06:49;12.80;1.00
9949;DHT22;5013;51.840;8.276;2022-11-04T13:09:38;12.80;1.00
9949;DHT22;5013;51.840;8.276;2022-11-04T13:12:39;12.70;48.90
9949;DHT22;5013;51.840;8.276;2022-11-04T13:17:40;12.50;1.00
9949;DHT22;5013;51.840;8.276;2022-11-04T13:22:43;12.50;1.00
9949;DHT22;5013;51.840;8.276;2022-11-04T13:25:16;12.60;1.00
9949;DHT22;5013;51.840;8.276;2022-11-04T13:27:46;12.80;99.90
9949;DHT22;5013;51.840;8.276;2022-11-04T13:39:18;13.00;1.00
9949;DHT22;5013;51.840;8.276;2022-11-04T13:44:46;13.20;1.00
9949;DHT22;5013;51.840;8.276;2022-11-04T13:47:29;13.30;1.00
9949;DHT22;5013;51.840;8.276;2022-11-04T13:49:57;13.40;99.90
9949;DHT22;5013;51.840;8.276;2022-11-04T13:52:26;13.20;1.00
9949;DHT22;5013;51.840;8.276;2022-11-04T13:54:58;13.20;1.00
9949;DHT22;5013;51.840;8.276;2022-11-04T13:57:47;13.10;1.00
9949;DHT22;5013;51.840;8.276;2022-11-04T14:03:36;13.00;1.00
9949;DHT22;5013;51.840;8.276;2022-11-04T14:08:26;13.00;15.50
9949;DHT22;5013;51.840;8.276;2022-11-04T14:16:04;13.00;1.00
9949;DHT22;5013;51.840;8.276;2022-11-04T14:18:32;12.90;34.60
9949;DHT22;5013;51.840;8.276;2022-11-04T14:24:01;12.80;90.30
9949;DHT22;5013;51.840;8.276;2022-11-04T14:26:48;12.80;99.90
9949;DHT22;5013;51.840;8.276;2022-11-04T14:29:24;12.70;99.90
9949;DHT22;5013;51.840;8.276;2022-11-04T14:31:53;12.70;99.90
9949;DHT22;5013;51.840;8.276;2022-11-04T14:36:54;12.60;1.00
9949;DHT22;5013;51.840;8.276;2022-11-04T14:39:23;12.50;1.00
9949;DHT22;5013;51.840;8.276;2022-11-04T14:41:56;12.50;1.00
9949;DHT22;5013;51.840;8.276;2022-11-04T14:44:30;12.50;1.00
9949;DHT22;5013;51.840;8.276;2022-11-04T14:49:44;12.30;1.00
9949;DHT22;5013;51.840;8.276;2022-11-04T14:55:06;12.30;99.90
9949;DHT22;5013;51.840;8.276;2022-11-04T14:57:40;12.30;99.90
9949;DHT22;5013;51.840;8.276;2022-11-04T15:05:31;12.20;99.90
9949;DHT22;5013;51.840;8.276;2022-11-04T15:08:02;12.20;99.90
9949;DHT22;5013;51.840;8.276;2022-11-04T15:10:48;12.20;99.90
9949;DHT22;5013;51.840;8.276;2022-11-04T15:13:18;12.20;1.00
9949;DHT22;5013;51.840;8.276;2022-11-04T15:15:45;12.20;1.00
9949;DHT22;5013;51.840;8.276;2022-11-04T15:18:16;12.10;1.00
9949;DHT22;5013;51.840;8.276;2022-11-04T15:20:51;12.10;1.00
9949;DHT22;5013;51.840;8.276;2022-11-04T15:25:56;12.10;1.00
9949;DHT22;5013;51.840;8.276;2022-11-04T15:28:28;12.10;1.00
9949;DHT22;5013;51.840;8.276;2022-11-04T15:30:58;12.00;1.00
9949;DHT22;5013;51.840;8.276;2022-11-04T15:33:24;12.10;1.00
9949;DHT22;5013;51.840;8.276;2022-11-04T15:35:52;12.10;1.00
9949;DHT22;5013;51.840;8.276;2022-11-04T15:38:18;12.00;1.00
9949;DHT22;5013;51.840;8.276;2022-11-04T15:40:45;11.90;1.00
9949;DHT22;5013;51.840;8.276;2022-11-04T15:43:12;11.80;1.00
9949;DHT22;5013;51.840;8.276;2022-11-04T15:45:49;11.80;1.00
9949;DHT22;5013;51.840;8.276;2022-11-04T15:48:25;11.80;30.90
9949;DHT22;5013;51.840;8.276;2022-11-04T15:51:22;11.70;99.90
9949;DHT22;5013;51.840;8.276;2022-11-04T15:54:03;11.60;99.90
9949;DHT22;5013;51.840;8.276;2022-11-04T15:56:33;11.70;99.90
9949;DHT22;5013;51.840;8.276;2022-11-04T15:59:08;11.60;99.90
9949;DHT22;5013;51.840;8.276;2022-11-04T16:01:46;11.60;99.90
9949;DHT22;5013;51.840;8.276;2022-11-04T16:04:15;11.60;99.90
9949;DHT22;5013;51.840;8.276;2022-11-04T16:06:45;11.60;99.90
9949;DHT22;5013;51.840;8.276;2022-11-04T16:09:26;11.60;99.90
9949;DHT22;5013;51.840;8.276;2022-11-04T16:12:26;11.60;1.00
9949;DHT22;5013;51.840;8.276;2022-11-04T16:14:54;11.60;1.00
9949;DHT22;5013;51.840;8.276;2022-11-04T16:17:21;11.50;1.00
9949;DHT22;5013;51.840;8.276;2022-11-04T16:19:51;11.50;1.00
9949;DHT22;5013;51.840;8.276;2022-11-04T16:22:23;11.50;99.90
9949;DHT22;5013;51.840;8.276;2022-11-04T16:28:29;11.50;1.00
9949;DHT22;5013;51.840;8.276;2022-11-04T16:34:17;11.30;99.90
9949;DHT22;5013;51.840;8.276;2022-11-04T16:36:42;11.30;1.00
9949;DHT22;5013;51.840;8.276;2022-11-04T16:39:08;11.30;99.90
9949;DHT22;5013;51.840;8.276;2022-11-04T16:41:36;11.20;99.90
9949;DHT22;5013;51.840;8.276;2022-11-04T16:44:03;11.40;1.00
9949;DHT22;5013;51.840;8.276;2022-11-04T16:49:51;11.30;99.90
9949;DHT22;5013;51.840;8.276;2022-11-04T16:52:25;11.10;99.90
9949;DHT22;5013;51.840;8.276;2022-11-04T16:54:52;11.00;1.00
9949;DHT22;5013;51.840;8.276;2022-11-04T16:57:21;10.90;1.00
9949;DHT22;5013;51.840;8.276;2022-11-04T16:59:48;10.90;1.00
9949;DHT22;5013;51.840;8.276;2022-11-04T17:02:25;10.40;1.00
9949;DHT22;5013;51.840;8.276;2022-11-04T17:04:52;10.30;99.90
9949;DHT22;5013;51.840;8.276;2022-11-04T17:10:40;10.30;99.90
9949;DHT22;5013;51.840;8.276;2022-11-04T17:16:30;10.30;1.00
9949;DHT22;5013;51.840;8.276;2022-11-04T17:18:55;10.20;1.00
9949;DHT22;5013;51.840;8.276;2022-11-04T17:24:43;10.10;19.50
9949;DHT22;5013;51.840;8.276;2022-11-04T17:27:09;10.10;99.90
9949;DHT22;5013;51.840;8.276;2022-11-04T17:29:35;10.10;1.00
9949;DHT22;5013;51.840;8.276;2022-11-04T17:35:23;10.20;99.90
9949;DHT22;5013;51.840;8.276;2022-11-04T17:37:53;10.00;99.90
9949;DHT22;5013;51.840;8.276;2022-11-04T17:40:20;10.00;99.90
9949;DHT22;5013;51.840;8.276;2022-11-04T17:42:46;10.00;99.90
9949;DHT22;5013;51.840;8.276;2022-11-04T17:45:31;10.00;99.90
9949;DHT22;5013;51.840;8.276;2022-11-04T17:48:00;10.00;99.90
9949;DHT22;5013;51.840;8.276;2022-11-04T17:50:26;9.90;99.90
9949;DHT22;5013;51.840;8.276;2022-11-04T17:52:52;9.90;99.90
9949;DHT22;5013;51.840;8.276;2022-11-04T17:55:18;10.00;99.90
9949;DHT22;5013;51.840;8.276;2022-11-04T17:57:44;10.00;99.90
9949;DHT22;5013;51.840;8.276;2022-11-04T18:03:31;10.00;99.90
9949;DHT22;5013;51.840;8.276;2022-11-04T18:05:57;10.00;99.90
9949;DHT22;5013;51.840;8.276;2022-11-04T18:08:23;10.00;99.90
9949;DHT22;5013;51.840;8.276;2022-11-04T18:10:49;9.90;99.90
9949;DHT22;5013;51.840;8.276;2022-11-04T18:13:15;9.90;99.90
9949;DHT22;5013;51.840;8.276;2022-11-04T18:15:41;9.90;99.90
9949;DHT22;5013;51.840;8.276;2022-11-04T18:21:28;9.90;99.90
9949;DHT22;5013;51.840;8.276;2022-11-04T18:23:55;9.80;99.90
9949;DHT22;5013;51.840;8.276;2022-11-04T18:26:21;9.80;99.90
9949;DHT22;5013;51.840;8.276;2022-11-04T18:28:47;9.80;99.90
9949;DHT22;5013;51.840;8.276;2022-11-04T18:31:26;9.80;99.90
9949;DHT22;5013;51.840;8.276;2022-11-04T18:37:13;9.90;99.90
9949;DHT22;5013;51.840;8.276;2022-11-04T18:39:40;9.80;99.90
9949;DHT22;5013;51.840;8.276;2022-11-04T18:42:07;9.90;99.90
9949;DHT22;5013;51.840;8.276;2022-11-04T18:44:33;10.00;99.90
9949;DHT22;5013;51.840;8.276;2022-11-04T18:50:21;10.00;99.90
9949;DHT22;5013;51.840;8.276;2022-11-04T18:52:47;9.90;99.90
9949;DHT22;5013;51.840;8.276;2022-11-04T18:55:13;9.90;99.90
9949;DHT22;5013;51.840;8.276;2022-11-04T18:57:38;9.90;99.90
9949;DHT22;5013;51.840;8.276;2022-11-04T19:00:04;9.90;99.90
9949;DHT22;5013;51.840;8.276;2022-11-04T19:02:30;9.80;99.90
9949;DHT22;5013;51.840;8.276;2022-11-04T19:04:56;9.70;99.90
9949;DHT22;5013;51.840;8.276;2022-11-04T19:07:22;9.70;99.90
9949;DHT22;5013;51.840;8.276;2022-11-04T19:09:48;9.60;99.90
9949;DHT22;5013;51.840;8.276;2022-11-04T19:12:14;9.60;99.90
9949;DHT22;5013;51.840;8.276;2022-11-04T19:14:58;9.60;99.90
9949;DHT22;5013;51.840;8.276;2022-11-04T19:20:46;9.50;99.90
9949;DHT22;5013;51.840;8.276;2022-11-04T19:23:11;9.40;99.90
9949;DHT22;5013;51.840;8.276;2022-11-04T19:25:39;9.40;99.90
9949;DHT22;5013;51.840;8.276;2022-11-04T19:28:06;9.30;99.90
9949;DHT22;5013;51.840;8.276;2022-11-04T19:30:34;9.30;99.90
9949;DHT22;5013;51.840;8.276;2022-11-04T19:33:00;9.30;99.90
9949;DHT22;5013;51.840;8.276;2022-11-04T19:35:26;9.30;99.90
9949;DHT22;5013;51.840;8.276;2022-11-04T19:37:52;9.10;99.90
9949;DHT22;5013;51.840;8.276;2022-11-04T19:43:39;8.90;99.90
9949;DHT22;5013;51.840;8.276;2022-11-04T19:46:05;8.80;99.90
9949;DHT22;5013;51.840;8.276;2022-11-04T19:51:52;8.80;99.90
9949;DHT22;5013;51.840;8.276;2022-11-04T19:54:18;8.70;99.90
9949;DHT22;5013;51.840;8.276;2022-11-04T19:56:44;8.70;99.90
9949;DHT22;5013;51.840;8.276;2022-11-04T19:59:09;8.70;99.90